Time,TemperatureF,DewpointF,PressureIn,WindDirection,WindDirectionDegrees,WindSpeedMPH,WindSpeedGustMPH,Humidity,HourlyPrecipIn,Conditions,Clouds,dailyrainin,SoftwareType,DateUTC
2013-06-10 00:00:00,70.6,69.7,30.04,SSW,207,3.0,4.0,97,0.00,,,0.00,WeatherTracker,2013-06-10 05:00:00,
2013-06-10 00:10:00,70.6,69.7,30.03,SSW,203,1.0,8.0,97,0.00,,,0.00,WeatherTracker,2013-06-10 05:10:00,
2013-06-10 00:15:00,70.6,69.7,30.03,South,188,2.0,8.0,97,0.00,,,0.00,WeatherTracker,2013-06-10 05:15:00,
2013-06-10 00:20:00,70.6,69.7,30.03,SSE,149,4.0,7.0,97,0.00,,,0.00,WeatherTracker,2013-06-10 05:20:00,
2013-06-10 00:30:00,70.7,69.8,30.03,SSW,202,3.0,7.0,97,0.00,,,0.00,WeatherTracker,2013-06-10 05:30:00,
2013-06-10 00:40:00,70.8,69.9,30.02,South,184,3.0,8.0,97,0.00,,,0.00,WeatherTracker,2013-06-10 05:40:00,
2013-06-10 00:50:00,70.9,70.0,30.02,South,169,4.0,10.0,97,0.00,,,0.00,WeatherTracker,2013-06-10 05:50:00,
2013-06-10 01:00:00,71.0,70.1,30.02,SSW,199,3.0,10.0,97,0.00,,,0.00,WeatherTracker,2013-06-10 06:00:00,
2013-06-10 01:10:00,71.1,70.2,30.02,South,190,2.0,9.0,97,0.00,,,0.00,WeatherTracker,2013-06-10 06:10:00,
2013-06-10 01:20:00,71.2,70.3,30.02,SSW,211,5.0,8.0,97,0.00,,,0.00,WeatherTracker,2013-06-10 06:20:00,
2013-06-10 01:30:00,71.3,70.4,30.02,South,172,1.0,7.0,97,0.00,,,0.00,WeatherTracker,2013-06-10 06:30:00,
2013-06-10 01:35:00,71.4,70.5,30.01,South,172,2.0,7.0,97,0.00,,,0.00,WeatherTracker,2013-06-10 06:35:00,
2013-06-10 01:45:00,71.4,70.5,30.01,South,174,2.0,9.0,97,0.00,,,0.00,WeatherTracker,2013-06-10 06:45:00,
2013-06-10 01:50:00,71.5,70.6,30.01,SSW,198,1.0,9.0,97,0.00,,,0.00,WeatherTracker,2013-06-10 06:50:00,
2013-06-10 02:00:00,71.5,70.6,30.01,South,186,5.0,9.0,97,0.00,,,0.00,WeatherTracker,2013-06-10 07:00:00,
2013-06-10 02:10:00,71.5,70.6,30.01,SW,224,2.0,8.0,97,0.00,,,0.00,WeatherTracker,2013-06-10 07:10:00,
2013-06-10 02:20:00,71.6,70.7,30.00,SSW,196,2.0,7.0,97,0.00,,,0.00,WeatherTracker,2013-06-10 07:20:00,
2013-06-10 02:30:00,71.7,70.8,30.00,South,179,2.0,9.0,97,0.00,,,0.00,WeatherTracker,2013-06-10 07:30:00,
2013-06-10 02:40:00,71.8,70.9,30.00,SSW,196,5.0,7.0,97,0.00,,,0.00,WeatherTracker,2013-06-10 07:40:00,
2013-06-10 02:45:00,71.9,71.0,30.00,SSW,194,3.0,7.0,97,0.00,,,0.00,WeatherTracker,2013-06-10 07:45:00,
2013-06-10 02:55:00,71.9,71.0,30.00,SSW,202,2.0,6.0,97,0.00,,,0.00,WeatherTracker,2013-06-10 07:55:00,
2013-06-10 03:05:00,72.0,71.1,30.00,South,186,3.0,5.0,97,0.00,,,0.00,WeatherTracker,2013-06-10 08:05:00,
2013-06-10 03:15:00,72.1,71.2,30.00,South,185,0.0,6.0,97,0.00,,,0.00,WeatherTracker,2013-06-10 08:15:00,
2013-06-10 03:20:00,72.1,71.2,30.00,SW,220,4.0,6.0,97,0.00,,,0.00,WeatherTracker,2013-06-10 08:20:00,
2013-06-10 03:30:00,72.1,71.2,30.00,SSW,192,2.0,6.0,97,0.00,,,0.00,WeatherTracker,2013-06-10 08:30:00,
2013-06-10 03:35:00,72.2,71.3,29.99,SSW,201,2.0,7.0,97,0.00,,,0.00,WeatherTracker,2013-06-10 08:35:00,
2013-06-10 03:45:00,72.2,71.3,30.00,SW,223,3.0,6.0,97,0.00,,,0.00,WeatherTracker,2013-06-10 08:45:00,
2013-06-10 03:50:00,72.1,71.2,30.00,South,182,6.0,7.0,97,0.00,,,0.00,WeatherTracker,2013-06-10 08:50:00,
2013-06-10 03:55:00,72.1,71.2,29.99,SSE,151,4.0,7.0,97,0.00,,,0.00,WeatherTracker,2013-06-10 08:55:00,
2013-06-10 04:05:00,72.0,71.1,30.00,South,178,1.0,6.0,97,0.00,,,0.00,WeatherTracker,2013-06-10 09:05:00,
2013-06-10 04:10:00,71.9,71.0,29.99,SSW,201,1.0,6.0,97,0.00,,,0.00,WeatherTracker,2013-06-10 09:10:00,
2013-06-10 04:20:00,71.8,70.9,30.00,SSW,194,2.0,7.0,97,0.00,,,0.00,WeatherTracker,2013-06-10 09:20:00,
2013-06-10 04:30:00,71.8,70.9,30.00,South,179,0.0,5.0,97,0.00,,,0.00,WeatherTracker,2013-06-10 09:30:00,
2013-06-10 04:35:00,71.8,70.9,30.00,SW,215,2.0,6.0,97,0.00,,,0.00,WeatherTracker,2013-06-10 09:35:00,
2013-06-10 04:40:00,71.8,70.9,30.00,SW,219,4.0,6.0,97,0.00,,,0.00,WeatherTracker,2013-06-10 09:40:00,
2013-06-10 04:45:00,71.8,70.9,30.00,WSW,246,3.0,6.0,97,0.00,,,0.00,WeatherTracker,2013-06-10 09:45:00,
2013-06-10 04:50:00,71.8,70.9,30.00,SSW,200,2.0,5.0,97,0.00,,,0.00,WeatherTracker,2013-06-10 09:50:00,
2013-06-10 05:00:00,71.8,70.9,30.00,SSW,200,3.0,4.0,97,0.00,,,0.00,WeatherTracker,2013-06-10 10:00:00,
2013-06-10 05:05:00,71.7,70.8,30.00,SSW,200,0.0,4.0,97,0.00,,,0.00,WeatherTracker,2013-06-10 10:05:00,
2013-06-10 05:15:00,71.7,70.8,30.00,SSW,200,0.0,3.0,97,0.00,,,0.00,WeatherTracker,2013-06-10 10:15:00,
2013-06-10 05:20:00,71.7,70.8,30.00,SSW,200,2.0,2.0,97,0.00,,,0.00,WeatherTracker,2013-06-10 10:20:00,
2013-06-10 05:30:00,71.7,71.1,30.00,SSW,200,1.0,4.0,98,0.00,,,0.00,WeatherTracker,2013-06-10 10:30:00,
2013-06-10 05:35:00,71.7,71.1,30.01,SSW,200,2.0,4.0,98,0.00,,,0.00,WeatherTracker,2013-06-10 10:35:00,
2013-06-10 05:45:00,71.8,71.2,30.01,South,190,2.0,5.0,98,0.00,,,0.00,WeatherTracker,2013-06-10 10:45:00,
2013-06-10 05:55:00,71.9,71.3,30.01,SSE,159,0.0,5.0,98,0.01,,,0.01,WeatherTracker,2013-06-10 10:55:00,
2013-06-10 06:00:00,71.9,71.3,30.02,SSE,162,1.0,5.0,98,0.01,,,0.01,WeatherTracker,2013-06-10 11:00:00,
2013-06-10 06:10:00,71.9,71.3,30.02,SSE,162,0.0,4.0,98,0.03,,,0.03,WeatherTracker,2013-06-10 11:10:00,
2013-06-10 06:15:00,72.0,71.4,30.02,SSE,162,1.0,4.0,98,0.04,,,0.04,WeatherTracker,2013-06-10 11:15:00,
2013-06-10 06:20:00,72.1,71.2,30.02,South,179,0.0,5.0,97,0.05,,,0.05,WeatherTracker,2013-06-10 11:20:00,
2013-06-10 06:25:00,72.1,71.2,30.02,South,179,2.0,5.0,97,0.06,,,0.06,WeatherTracker,2013-06-10 11:25:00,
2013-06-10 06:30:00,72.1,71.2,30.02,South,179,0.0,4.0,97,0.07,,,0.07,WeatherTracker,2013-06-10 11:30:00,
2013-06-10 06:40:00,72.2,71.3,30.03,South,179,0.0,0.0,97,0.08,,,0.08,WeatherTracker,2013-06-10 11:40:00,
2013-06-10 06:50:00,72.2,71.3,30.03,South,179,2.0,4.0,97,0.09,,,0.10,WeatherTracker,2013-06-10 11:50:00,
2013-06-10 07:00:00,72.2,71.3,30.03,SSW,198,1.0,4.0,97,0.12,,,0.13,WeatherTracker,2013-06-10 12:00:00,
2013-06-10 07:10:00,72.4,71.8,30.02,South,184,0.0,6.0,98,0.12,,,0.15,WeatherTracker,2013-06-10 12:10:00,
2013-06-10 07:15:00,72.4,71.8,30.02,South,184,2.0,5.0,98,0.13,,,0.17,WeatherTracker,2013-06-10 12:15:00,
2013-06-10 07:25:00,72.4,71.8,30.02,South,184,0.0,3.0,98,0.12,,,0.18,WeatherTracker,2013-06-10 12:25:00,
2013-06-10 07:30:00,72.5,71.9,30.02,South,184,0.0,2.0,98,0.12,,,0.19,WeatherTracker,2013-06-10 12:30:00,
2013-06-10 07:35:00,72.5,71.9,30.02,South,184,0.0,1.0,98,0.13,,,0.20,WeatherTracker,2013-06-10 12:35:00,
2013-06-10 07:45:00,72.6,72.0,30.02,SSE,161,4.0,5.0,98,0.12,,,0.21,WeatherTracker,2013-06-10 12:45:00,
2013-06-10 07:50:00,72.6,72.0,30.02,South,186,2.0,5.0,98,0.11,,,0.21,WeatherTracker,2013-06-10 12:50:00,
2013-06-10 07:55:00,72.7,72.1,30.02,SSE,161,2.0,5.0,98,0.10,,,0.21,WeatherTracker,2013-06-10 12:55:00,
2013-06-10 08:05:00,72.9,72.3,30.02,South,188,4.0,7.0,98,0.07,,,0.21,WeatherTracker,2013-06-10 13:05:00,
2013-06-10 08:15:00,73.3,72.7,30.02,South,179,5.0,6.0,98,0.04,,,0.21,WeatherTracker,2013-06-10 13:15:00,
2013-06-10 08:25:00,73.7,73.1,30.02,SSW,202,1.0,7.0,98,0.03,,,0.21,WeatherTracker,2013-06-10 13:25:00,
2013-06-10 08:35:00,74.0,73.4,30.02,South,186,0.0,7.0,98,0.01,,,0.21,WeatherTracker,2013-06-10 13:35:00,
2013-06-10 08:40:00,74.1,73.5,30.02,SE,124,7.0,7.0,98,0.01,,,0.21,WeatherTracker,2013-06-10 13:40:00,
2013-06-10 08:45:00,74.2,73.6,30.02,SSW,210,5.0,8.0,98,0.00,,,0.21,WeatherTracker,2013-06-10 13:45:00,
2013-06-10 08:55:00,74.5,73.9,30.03,SW,231,4.0,7.0,98,0.00,,,0.21,WeatherTracker,2013-06-10 13:55:00,
2013-06-10 09:05:00,74.8,74.2,30.03,SW,219,3.0,7.0,98,0.00,,,0.21,WeatherTracker,2013-06-10 14:05:00,
2013-06-10 09:10:00,74.8,74.2,30.03,SSW,213,3.0,9.0,98,0.00,,,0.21,WeatherTracker,2013-06-10 14:10:00,
2013-06-10 09:15:00,74.8,74.2,30.03,SSW,197,4.0,9.0,98,0.00,,,0.21,WeatherTracker,2013-06-10 14:15:00,
2013-06-10 09:20:00,74.8,74.2,30.03,SSW,212,2.0,7.0,98,0.00,,,0.21,WeatherTracker,2013-06-10 14:20:00,
2013-06-10 09:25:00,74.8,74.2,30.03,SW,215,5.0,8.0,98,0.00,,,0.21,WeatherTracker,2013-06-10 14:25:00,
2013-06-10 09:35:00,74.7,74.1,30.03,SW,223,4.0,9.0,98,0.00,,,0.21,WeatherTracker,2013-06-10 14:35:00,
2013-06-10 09:40:00,74.5,73.9,30.03,SW,236,3.0,9.0,98,0.00,,,0.21,WeatherTracker,2013-06-10 14:40:00,
2013-06-10 09:45:00,74.4,73.8,30.03,SW,236,5.0,9.0,98,0.00,,,0.21,WeatherTracker,2013-06-10 14:45:00,
2013-06-10 09:55:00,73.9,73.3,30.04,WSW,254,4.0,8.0,98,0.00,,,0.21,WeatherTracker,2013-06-10 14:55:00,
2013-06-10 10:05:00,74.1,73.2,30.05,WSW,240,4.0,8.0,97,0.00,,,0.21,WeatherTracker,2013-06-10 15:05:00,
2013-06-10 10:10:00,74.2,73.3,30.05,SSW,193,3.0,9.0,97,0.00,,,0.21,WeatherTracker,2013-06-10 15:10:00,
2013-06-10 10:15:00,74.3,73.4,30.05,SW,227,6.0,9.0,97,0.00,,,0.21,WeatherTracker,2013-06-10 15:15:00,
2013-06-10 10:25:00,74.7,73.8,30.05,SW,221,4.0,7.0,97,0.00,,,0.21,WeatherTracker,2013-06-10 15:25:00,
2013-06-10 10:30:00,74.8,73.9,30.05,SW,215,5.0,7.0,97,0.00,,,0.21,WeatherTracker,2013-06-10 15:30:00,
2013-06-10 10:40:00,75.0,74.1,30.05,SSW,210,7.0,9.0,97,0.00,,,0.21,WeatherTracker,2013-06-10 15:40:00,
2013-06-10 10:45:00,75.2,74.3,30.05,SSW,205,3.0,10.0,97,0.00,,,0.21,WeatherTracker,2013-06-10 15:45:00,
2013-06-10 10:50:00,75.3,74.4,30.06,SW,222,7.0,10.0,97,0.00,,,0.21,WeatherTracker,2013-06-10 15:50:00,
2013-06-10 11:00:00,75.6,74.4,30.06,SSW,211,5.0,9.0,96,0.00,,,0.21,WeatherTracker,2013-06-10 16:00:00,
2013-06-10 11:10:00,75.9,74.7,30.07,SW,236,5.0,10.0,96,0.00,,,0.21,WeatherTracker,2013-06-10 16:10:00,
2013-06-10 11:15:00,76.0,74.5,30.07,WSW,248,5.0,10.0,95,0.00,,,0.21,WeatherTracker,2013-06-10 16:15:00,
2013-06-10 11:20:00,76.1,74.6,30.07,SW,236,8.0,11.0,95,0.00,,,0.21,WeatherTracker,2013-06-10 16:20:00,
2013-06-10 11:25:00,76.1,74.2,30.07,West,262,11.0,12.0,94,0.00,,,0.21,WeatherTracker,2013-06-10 16:25:00,
2013-06-10 11:35:00,76.0,73.5,30.07,WSW,254,5.0,15.0,92,0.00,,,0.21,WeatherTracker,2013-06-10 16:35:00,
2013-06-10 11:40:00,76.1,73.3,30.07,West,265,9.0,15.0,91,0.00,,,0.21,WeatherTracker,2013-06-10 16:40:00,
2013-06-10 11:50:00,75.7,72.2,30.08,NW,311,8.0,15.0,89,0.00,,,0.21,WeatherTracker,2013-06-10 16:50:00,
2013-06-10 11:55:00,75.5,71.7,30.07,West,271,4.0,13.0,88,0.00,,,0.21,WeatherTracker,2013-06-10 16:55:00,
2013-06-10 12:00:00,75.5,72.0,30.07,West,269,11.0,11.0,89,0.00,,,0.21,WeatherTracker,2013-06-10 17:00:00,
2013-06-10 12:05:00,75.4,71.6,30.07,WSW,258,5.0,11.0,88,0.00,,,0.21,WeatherTracker,2013-06-10 17:05:00,
2013-06-10 12:10:00,75.2,71.4,30.08,WSW,253,9.0,11.0,88,0.00,,,0.21,WeatherTracker,2013-06-10 17:10:00,
2013-06-10 12:20:00,74.9,71.1,30.07,WSW,257,3.0,12.0,88,0.00,,,0.21,WeatherTracker,2013-06-10 17:20:00,
2013-06-10 12:25:00,74.8,71.3,30.08,WSW,243,4.0,12.0,89,0.00,,,0.21,WeatherTracker,2013-06-10 17:25:00,
2013-06-10 12:30:00,74.5,71.0,30.08,West,260,4.0,11.0,89,0.00,,,0.21,WeatherTracker,2013-06-10 17:30:00,
2013-06-10 12:40:00,73.9,71.1,30.08,SW,234,2.0,8.0,91,0.01,,,0.22,WeatherTracker,2013-06-10 17:40:00,
2013-06-10 12:45:00,73.6,71.1,30.08,SW,231,3.0,8.0,92,0.01,,,0.22,WeatherTracker,2013-06-10 17:45:00,
2013-06-10 12:55:00,72.9,70.8,30.08,SW,224,7.0,13.0,93,0.01,,,0.22,WeatherTracker,2013-06-10 17:55:00,
2013-06-10 13:05:00,72.5,70.7,30.07,SSW,202,4.0,10.0,94,0.02,,,0.23,WeatherTracker,2013-06-10 18:05:00,
2013-06-10 13:15:00,72.2,70.4,30.07,WSW,241,2.0,10.0,94,0.04,,,0.25,WeatherTracker,2013-06-10 18:15:00,
2013-06-10 13:20:00,72.2,70.7,30.06,WSW,244,5.0,8.0,95,0.04,,,0.25,WeatherTracker,2013-06-10 18:20:00,
2013-06-10 13:25:00,72.2,70.7,30.06,SSW,210,4.0,8.0,95,0.04,,,0.25,WeatherTracker,2013-06-10 18:25:00,
2013-06-10 13:30:00,72.3,70.8,30.05,West,265,6.0,8.0,95,0.04,,,0.25,WeatherTracker,2013-06-10 18:30:00,
2013-06-10 13:35:00,72.4,70.9,30.05,WSW,240,4.0,9.0,95,0.04,,,0.25,WeatherTracker,2013-06-10 18:35:00,
2013-06-10 13:40:00,72.4,70.9,30.04,WSW,242,3.0,9.0,95,0.03,,,0.25,WeatherTracker,2013-06-10 18:40:00,
2013-06-10 13:45:00,72.5,71.0,30.04,SSW,210,3.0,7.0,95,0.03,,,0.25,WeatherTracker,2013-06-10 18:45:00,
2013-06-10 13:55:00,72.8,71.3,30.04,SSW,203,2.0,8.0,95,0.03,,,0.25,WeatherTracker,2013-06-10 18:55:00,
2013-06-10 14:00:00,72.9,71.4,30.04,WSW,245,8.0,8.0,95,0.02,,,0.25,WeatherTracker,2013-06-10 19:00:00,
2013-06-10 14:10:00,72.9,71.4,30.03,WSW,238,4.0,8.0,95,0.01,,,0.25,WeatherTracker,2013-06-10 19:10:00,
2013-06-10 14:15:00,72.9,71.4,30.03,SW,216,2.0,9.0,95,0.00,,,0.25,WeatherTracker,2013-06-10 19:15:00,
2013-06-10 14:25:00,73.1,71.6,30.03,SW,235,4.0,7.0,95,0.00,,,0.25,WeatherTracker,2013-06-10 19:25:00,
2013-06-10 14:30:00,73.1,71.6,30.02,SW,217,2.0,7.0,95,0.00,,,0.25,WeatherTracker,2013-06-10 19:30:00,
2013-06-10 14:35:00,73.2,71.7,30.02,SSE,168,4.0,5.0,95,0.00,,,0.25,WeatherTracker,2013-06-10 19:35:00,
2013-06-10 14:45:00,73.5,72.0,30.02,South,182,2.0,7.0,95,0.00,,,0.25,WeatherTracker,2013-06-10 19:45:00,
2013-06-10 14:50:00,73.5,72.0,30.02,WSW,249,4.0,5.0,95,0.00,,,0.25,WeatherTracker,2013-06-10 19:50:00,
2013-06-10 14:55:00,73.6,72.1,30.02,South,182,1.0,5.0,95,0.00,,,0.25,WeatherTracker,2013-06-10 19:55:00,
2013-06-10 15:00:00,73.7,72.2,30.02,SW,219,0.0,5.0,95,0.00,,,0.25,WeatherTracker,2013-06-10 20:00:00,
2013-06-10 15:10:00,74.0,72.5,30.02,SSW,202,4.0,4.0,95,0.00,,,0.25,WeatherTracker,2013-06-10 20:10:00,
2013-06-10 15:15:00,74.4,72.9,30.02,SW,221,3.0,6.0,95,0.00,,,0.25,WeatherTracker,2013-06-10 20:15:00,
2013-06-10 15:20:00,74.9,73.4,30.02,SSW,210,4.0,6.0,95,0.00,,,0.25,WeatherTracker,2013-06-10 20:20:00,
2013-06-10 15:30:00,76.9,74.7,30.01,SSW,200,4.0,10.0,93,0.00,,,0.25,WeatherTracker,2013-06-10 20:30:00,
2013-06-10 15:35:00,77.6,74.4,30.01,SSW,205,3.0,10.0,90,0.00,,,0.25,WeatherTracker,2013-06-10 20:35:00,
2013-06-10 15:45:00,78.5,74.3,30.01,SSE,163,7.0,9.0,87,0.00,,,0.25,WeatherTracker,2013-06-10 20:45:00,
2013-06-10 15:50:00,78.8,74.6,30.01,SW,224,5.0,10.0,87,0.00,,,0.25,WeatherTracker,2013-06-10 20:50:00,
2013-06-10 15:55:00,79.1,74.5,30.01,South,188,6.0,10.0,86,0.00,,,0.25,WeatherTracker,2013-06-10 20:55:00,
2013-06-10 16:05:00,80.0,75.1,30.01,SSW,211,5.0,8.0,85,0.00,,,0.25,WeatherTracker,2013-06-10 21:05:00,
2013-06-10 16:10:00,80.3,74.7,30.01,West,269,3.0,8.0,83,0.00,,,0.25,WeatherTracker,2013-06-10 21:10:00,
2013-06-10 16:15:00,80.1,73.7,30.01,SW,225,4.0,8.0,81,0.00,,,0.25,WeatherTracker,2013-06-10 21:15:00,
2013-06-10 16:20:00,80.0,74.0,30.01,SSW,212,2.0,8.0,82,0.00,,,0.25,WeatherTracker,2013-06-10 21:20:00,
2013-06-10 16:30:00,79.6,73.6,30.00,SW,220,5.0,9.0,82,0.00,,,0.25,WeatherTracker,2013-06-10 21:30:00,
2013-06-10 16:35:00,79.5,73.9,30.00,SW,234,4.0,7.0,83,0.00,,,0.25,WeatherTracker,2013-06-10 21:35:00,
2013-06-10 16:40:00,79.4,73.8,30.00,SW,231,6.0,9.0,83,0.00,,,0.25,WeatherTracker,2013-06-10 21:40:00,
2013-06-10 16:45:00,79.4,74.1,30.00,SW,215,5.0,9.0,84,0.00,,,0.25,WeatherTracker,2013-06-10 21:45:00,
2013-06-10 16:55:00,79.5,74.6,30.00,SW,234,5.0,7.0,85,0.00,,,0.25,WeatherTracker,2013-06-10 21:55:00,
2013-06-10 17:05:00,79.9,74.3,29.99,WSW,244,5.0,8.0,83,0.00,,,0.25,WeatherTracker,2013-06-10 22:05:00,
2013-06-10 17:15:00,80.1,74.8,29.99,SW,221,3.0,7.0,84,0.00,,,0.25,WeatherTracker,2013-06-10 22:15:00,
2013-06-10 17:25:00,80.0,74.7,29.98,WSW,248,4.0,7.0,84,0.00,,,0.25,WeatherTracker,2013-06-10 22:25:00,
2013-06-10 17:30:00,80.0,74.7,29.98,SW,223,2.0,6.0,84,0.00,,,0.25,WeatherTracker,2013-06-10 22:30:00,
2013-06-10 17:35:00,80.1,75.2,29.98,SW,223,2.0,5.0,85,0.00,,,0.25,WeatherTracker,2013-06-10 22:35:00,
2013-06-10 17:45:00,80.6,75.7,29.98,WSW,251,4.0,6.0,85,0.00,,,0.25,WeatherTracker,2013-06-10 22:45:00,
2013-06-10 17:50:00,80.9,75.2,29.98,SW,221,3.0,9.0,83,0.00,,,0.25,WeatherTracker,2013-06-10 22:50:00,
2013-06-10 18:00:00,80.9,74.9,29.98,SSW,202,3.0,8.0,82,0.00,,,0.25,WeatherTracker,2013-06-10 23:00:00,
2013-06-10 18:05:00,81.1,74.7,29.98,West,261,2.0,8.0,81,0.00,,,0.25,WeatherTracker,2013-06-10 23:05:00,
2013-06-10 18:15:00,81.4,74.6,29.98,West,266,3.0,9.0,80,0.00,,,0.25,WeatherTracker,2013-06-10 23:15:00,
2013-06-10 18:20:00,81.1,74.0,29.98,SW,227,6.0,9.0,79,0.00,,,0.25,WeatherTracker,2013-06-10 23:20:00,
2013-06-10 18:25:00,80.7,73.9,29.98,SW,229,7.0,9.0,80,0.00,,,0.25,WeatherTracker,2013-06-10 23:25:00,
2013-06-10 18:35:00,80.2,74.2,29.98,SW,231,1.0,8.0,82,0.01,,,0.26,WeatherTracker,2013-06-10 23:35:00,
2013-06-10 18:40:00,80.1,74.1,29.98,SSW,209,0.0,8.0,82,0.01,,,0.26,WeatherTracker,2013-06-10 23:40:00,
2013-06-10 18:45:00,79.9,74.3,29.98,SW,215,2.0,7.0,83,0.01,,,0.26,WeatherTracker,2013-06-10 23:45:00,
2013-06-10 18:55:00,79.7,74.4,29.99,SSW,208,1.0,5.0,84,0.01,,,0.26,WeatherTracker,2013-06-10 23:55:00,
2013-06-10 19:00:00,79.4,74.1,29.99,SW,215,4.0,6.0,84,0.01,,,0.26,WeatherTracker,2013-06-11 00:00:00,
2013-06-10 19:10:00,79.0,73.7,29.99,SW,217,4.0,7.0,84,0.01,,,0.26,WeatherTracker,2013-06-11 00:10:00,
2013-06-10 19:15:00,78.8,73.9,29.99,SW,236,6.0,6.0,85,0.01,,,0.26,WeatherTracker,2013-06-11 00:15:00,
2013-06-10 19:20:00,78.5,73.6,29.99,SW,229,3.0,6.0,85,0.01,,,0.26,WeatherTracker,2013-06-11 00:20:00,
2013-06-10 19:30:00,78.0,73.5,30.00,SW,228,4.0,7.0,86,0.01,,,0.26,WeatherTracker,2013-06-11 00:30:00,
2013-06-10 19:40:00,77.5,73.3,30.00,SW,214,1.0,5.0,87,0.00,,,0.26,WeatherTracker,2013-06-11 00:40:00,
2013-06-10 19:50:00,77.1,73.3,30.00,SW,223,4.0,4.0,88,0.00,,,0.26,WeatherTracker,2013-06-11 00:50:00,
2013-06-10 19:55:00,76.9,73.1,29.99,SW,229,4.0,6.0,88,0.00,,,0.26,WeatherTracker,2013-06-11 00:55:00,
2013-06-10 20:00:00,76.6,72.8,29.99,SW,223,0.0,6.0,88,0.00,,,0.26,WeatherTracker,2013-06-11 01:00:00,
2013-06-10 20:10:00,76.2,72.7,30.00,SW,229,0.0,5.0,89,0.00,,,0.26,WeatherTracker,2013-06-11 01:10:00,
2013-06-10 20:15:00,76.1,72.6,30.00,SW,229,0.0,5.0,89,0.00,,,0.26,WeatherTracker,2013-06-11 01:15:00,
2013-06-10 20:20:00,76.0,72.5,30.00,SW,229,0.0,3.0,89,0.00,,,0.26,WeatherTracker,2013-06-11 01:20:00,
2013-06-10 20:25:00,75.9,72.4,30.00,SW,229,0.0,3.0,89,0.00,,,0.26,WeatherTracker,2013-06-11 01:25:00,
2013-06-10 20:35:00,75.5,72.4,30.01,SSW,210,2.0,5.0,90,0.00,,,0.26,WeatherTracker,2013-06-11 01:35:00,
2013-06-10 20:40:00,75.4,72.3,30.00,SW,217,4.0,5.0,90,0.00,,,0.26,WeatherTracker,2013-06-11 01:40:00,
2013-06-10 20:50:00,75.1,72.3,30.01,SW,214,4.0,6.0,91,0.00,,,0.26,WeatherTracker,2013-06-11 01:50:00,
2013-06-10 20:55:00,75.0,72.5,30.01,SSW,210,4.0,6.0,92,0.00,,,0.26,WeatherTracker,2013-06-11 01:55:00,
2013-06-10 21:05:00,74.8,72.3,30.01,SSW,208,6.0,6.0,92,0.00,,,0.26,WeatherTracker,2013-06-11 02:05:00,
2013-06-10 21:10:00,74.8,72.3,30.01,South,189,4.0,6.0,92,0.00,,,0.26,WeatherTracker,2013-06-11 02:10:00,
2013-06-10 21:15:00,74.6,72.1,30.01,SSW,205,3.0,6.0,92,0.00,,,0.26,WeatherTracker,2013-06-11 02:15:00,
2013-06-10 21:25:00,74.5,72.0,30.01,SSW,213,2.0,6.0,92,0.00,,,0.26,WeatherTracker,2013-06-11 02:25:00,
2013-06-10 21:30:00,74.4,71.9,30.02,SW,219,2.0,5.0,92,0.00,,,0.26,WeatherTracker,2013-06-11 02:30:00,
2013-06-10 21:40:00,74.3,71.8,30.02,SW,225,4.0,5.0,92,0.00,,,0.26,WeatherTracker,2013-06-11 02:40:00,
2013-06-10 21:45:00,74.2,71.7,30.02,SW,223,2.0,5.0,92,0.00,,,0.26,WeatherTracker,2013-06-11 02:45:00,
2013-06-10 21:50:00,74.2,71.7,30.02,SSW,205,2.0,5.0,92,0.00,,,0.26,WeatherTracker,2013-06-11 02:50:00,
2013-06-10 22:00:00,74.0,71.5,30.03,SSW,207,4.0,6.0,92,0.00,,,0.26,WeatherTracker,2013-06-11 03:00:00,
2013-06-10 22:05:00,73.9,71.4,30.03,SSW,205,4.0,6.0,92,0.00,,,0.26,WeatherTracker,2013-06-11 03:05:00,
2013-06-10 22:10:00,73.9,71.7,30.02,SSW,197,2.0,6.0,93,0.00,,,0.26,WeatherTracker,2013-06-11 03:10:00,
2013-06-10 22:20:00,73.7,71.5,30.03,SSE,154,2.0,4.0,93,0.00,,,0.26,WeatherTracker,2013-06-11 03:20:00,
2013-06-10 22:25:00,73.7,71.5,30.03,SSE,155,1.0,5.0,93,0.00,,,0.26,WeatherTracker,2013-06-11 03:25:00,
2013-06-10 22:35:00,73.6,71.4,30.03,South,183,0.0,5.0,93,0.00,,,0.26,WeatherTracker,2013-06-11 03:35:00,
2013-06-10 22:40:00,73.5,71.3,30.03,SSW,211,3.0,3.0,93,0.00,,,0.26,WeatherTracker,2013-06-11 03:40:00,
2013-06-10 22:50:00,73.4,71.6,30.04,SSW,194,0.0,5.0,94,0.00,,,0.26,WeatherTracker,2013-06-11 03:50:00,
2013-06-10 23:00:00,73.4,71.6,30.04,SSW,196,0.0,4.0,94,0.00,,,0.26,WeatherTracker,2013-06-11 04:00:00,
2013-06-10 23:05:00,73.4,71.6,30.04,SSW,200,3.0,6.0,94,0.00,,,0.26,WeatherTracker,2013-06-11 04:05:00,
2013-06-10 23:10:00,73.4,71.6,30.04,SSW,192,1.0,6.0,94,0.00,,,0.26,WeatherTracker,2013-06-11 04:10:00,
2013-06-10 23:15:00,73.4,71.6,30.04,SSW,194,0.0,5.0,94,0.00,,,0.26,WeatherTracker,2013-06-11 04:15:00,
2013-06-10 23:20:00,73.3,71.5,30.04,SSW,194,1.0,4.0,94,0.00,,,0.26,WeatherTracker,2013-06-11 04:20:00,
2013-06-10 23:25:00,73.3,71.5,30.04,SSW,194,2.0,4.0,94,0.00,,,0.26,WeatherTracker,2013-06-11 04:25:00,
2013-06-10 23:30:00,73.3,71.5,30.04,SSW,194,0.0,4.0,94,0.00,,,0.26,WeatherTracker,2013-06-11 04:30:00,
2013-06-10 23:35:00,73.2,71.4,30.04,SSW,194,4.0,4.0,94,0.00,,,0.26,WeatherTracker,2013-06-11 04:35:00,
2013-06-10 23:40:00,73.2,71.4,30.04,SSW,194,0.0,4.0,94,0.00,,,0.26,WeatherTracker,2013-06-11 04:40:00,
2013-06-10 23:50:00,73.1,71.6,30.04,SSW,192,2.0,3.0,95,0.00,,,0.26,WeatherTracker,2013-06-11 04:50:00,